createdAt,value
2023-05-09T00:00:23.155Z,0.00
2023-05-09T00:01:23.216Z,0.00
2023-05-09T00:02:23.189Z,0.00
2023-05-09T00:03:23.197Z,0.00
2023-05-09T00:04:23.123Z,0.00
2023-05-09T00:05:23.067Z,0.00
2023-05-09T00:06:23.092Z,0.00
2023-05-09T00:07:23.033Z,0.00
2023-05-09T00:08:23.031Z,0.00
2023-05-09T00:09:23.033Z,0.00
2023-05-09T00:10:23.058Z,0.00
2023-05-09T00:11:23.049Z,0.00
2023-05-09T00:12:23.000Z,0.00
2023-05-09T00:13:23.060Z,0.00
2023-05-09T00:14:22.957Z,0.00
2023-05-09T00:15:23.006Z,0.00
2023-05-09T00:16:23.069Z,0.00
2023-05-09T00:17:22.962Z,0.00
2023-05-09T00:18:22.912Z,0.00
2023-05-09T00:19:22.918Z,0.00
2023-05-09T00:20:22.953Z,0.00
2023-05-09T00:21:22.961Z,0.00
2023-05-09T00:22:22.931Z,0.00
2023-05-09T00:23:22.865Z,0.00
2023-05-09T00:24:22.927Z,0.00
2023-05-09T00:25:22.902Z,0.00
2023-05-09T00:26:22.838Z,0.00
2023-05-09T00:27:22.823Z,0.00
2023-05-09T00:28:22.847Z,0.00
2023-05-09T00:29:22.851Z,0.00
2023-05-09T00:30:22.887Z,0.00
2023-05-09T00:31:22.780Z,0.00
2023-05-09T00:32:22.780Z,0.00
2023-05-09T00:33:22.780Z,0.00
2023-05-09T00:34:22.832Z,0.00
2023-05-09T00:35:22.807Z,0.00
2023-05-09T00:36:22.719Z,0.00
2023-05-09T00:37:22.731Z,0.00
2023-05-09T00:38:22.758Z,0.00
2023-05-09T00:39:22.708Z,0.00
2023-05-09T00:40:22.695Z,0.00
2023-05-09T00:41:22.664Z,0.00
2023-05-09T00:42:22.671Z,0.00
2023-05-09T00:43:22.679Z,0.00
2023-05-09T00:44:22.656Z,0.00
2023-05-09T00:45:22.621Z,0.00
2023-05-09T00:46:22.675Z,0.00
2023-05-09T00:47:22.593Z,0.00
2023-05-09T00:48:22.704Z,0.00
2023-05-09T00:49:22.576Z,0.00
2023-05-09T00:50:22.612Z,0.00
2023-05-09T00:51:22.553Z,0.00
2023-05-09T00:52:22.689Z,0.00
2023-05-09T00:53:22.594Z,0.00
2023-05-09T00:54:22.542Z,0.00
2023-05-09T00:55:22.617Z,0.00
2023-05-09T00:56:22.529Z,0.00
2023-05-09T00:57:22.533Z,0.00
2023-05-09T00:58:22.605Z,0.00
2023-05-09T00:59:22.530Z,0.00
2023-05-09T01:00:22.482Z,0.00
2023-05-09T01:01:22.482Z,0.00
2023-05-09T01:02:22.577Z,0.00
2023-05-09T01:03:22.524Z,0.00
2023-05-09T01:04:22.432Z,0.00
2023-05-09T01:05:22.412Z,0.00
2023-05-09T01:06:22.499Z,0.00
2023-05-09T01:07:22.438Z,0.00
2023-05-09T01:08:22.396Z,0.00
2023-05-09T01:09:22.368Z,0.00
2023-05-09T01:10:22.361Z,0.00
2023-05-09T01:11:22.379Z,0.00
2023-05-09T01:12:22.339Z,0.00
2023-05-09T01:13:22.410Z,0.00
2023-05-09T01:14:22.327Z,0.00
2023-05-09T01:15:22.315Z,0.00
2023-05-09T01:16:22.382Z,0.00
2023-05-09T01:17:22.263Z,0.00
2023-05-09T01:18:22.285Z,0.00
2023-05-09T01:19:22.291Z,0.00
2023-05-09T01:20:22.270Z,0.00
2023-05-09T01:21:22.321Z,0.00
2023-05-09T01:22:22.279Z,0.00
2023-05-09T01:23:22.262Z,0.00
2023-05-09T01:24:22.239Z,0.00
2023-05-09T01:25:22.252Z,0.00
2023-05-09T01:26:22.183Z,0.00
2023-05-09T01:27:22.241Z,0.00
2023-05-09T01:28:22.157Z,0.00
2023-05-09T01:29:22.159Z,0.00
2023-05-09T01:30:22.190Z,0.00
2023-05-09T01:31:22.187Z,0.00
2023-05-09T01:32:22.175Z,0.00
2023-05-09T01:33:22.166Z,0.00
2023-05-09T01:34:22.131Z,0.00
2023-05-09T01:35:22.109Z,0.00
2023-05-09T01:36:22.144Z,0.00
2023-05-09T01:37:22.156Z,0.00
2023-05-09T01:38:22.061Z,0.00
2023-05-09T01:39:22.089Z,0.00
2023-05-09T01:40:22.047Z,0.00
2023-05-09T01:41:22.043Z,0.00
2023-05-09T01:42:22.019Z,0.00
2023-05-09T01:43:22.098Z,0.00
2023-05-09T01:44:22.019Z,0.00
2023-05-09T01:45:21.989Z,0.00
2023-05-09T01:46:22.074Z,0.00
2023-05-09T01:47:21.973Z,0.00
2023-05-09T01:48:21.996Z,0.00
2023-05-09T01:49:21.963Z,0.00
2023-05-09T01:50:21.956Z,0.00
2023-05-09T01:51:21.941Z,0.00
2023-05-09T01:52:21.919Z,0.00
2023-05-09T01:53:21.923Z,0.00
2023-05-09T01:54:21.916Z,0.00
2023-05-09T01:55:21.864Z,0.00
2023-05-09T01:56:21.909Z,0.00
2023-05-09T01:57:21.846Z,0.00
2023-05-09T01:58:21.885Z,0.00
2023-05-09T01:59:21.853Z,0.00
2023-05-09T02:00:21.846Z,0.00
2023-05-09T02:01:21.866Z,0.00
2023-05-09T02:02:21.817Z,0.00
2023-05-09T02:03:21.904Z,0.00
2023-05-09T02:04:21.819Z,0.00
2023-05-09T02:05:21.790Z,0.00
2023-05-09T02:06:21.766Z,0.00
2023-05-09T02:07:21.800Z,0.00
2023-05-09T02:08:21.738Z,0.00
2023-05-09T02:09:21.745Z,0.00
2023-05-09T02:10:21.721Z,0.00
2023-05-09T02:11:21.711Z,0.00
2023-05-09T02:12:21.765Z,0.00
2023-05-09T02:13:21.741Z,0.00
2023-05-09T02:14:21.711Z,0.00
2023-05-09T02:15:21.654Z,0.00
2023-05-09T02:16:21.704Z,0.00
2023-05-09T02:17:21.684Z,0.00
2023-05-09T02:18:21.664Z,0.00
2023-05-09T02:19:21.719Z,0.00
2023-05-09T02:20:21.612Z,0.00
2023-05-09T02:21:21.601Z,0.00
2023-05-09T02:22:21.592Z,0.00
2023-05-09T02:23:21.575Z,0.00
2023-05-09T02:24:21.662Z,0.00
2023-05-09T02:25:21.548Z,0.00
2023-05-09T02:26:21.552Z,0.00
2023-05-09T02:27:21.526Z,0.00
2023-05-09T02:28:21.546Z,0.00
2023-05-09T02:29:21.534Z,0.00
2023-05-09T02:30:21.533Z,0.00
2023-05-09T02:31:21.581Z,0.00
2023-05-09T02:32:21.490Z,0.00
2023-05-09T02:33:21.464Z,0.00
2023-05-09T02:34:21.473Z,0.00
2023-05-09T02:35:21.473Z,0.00
2023-05-09T02:36:21.429Z,0.00
2023-05-09T02:37:21.453Z,0.00
2023-05-09T02:38:21.432Z,0.00
2023-05-09T02:39:21.428Z,0.00
2023-05-09T02:40:21.424Z,0.00
2023-05-09T02:41:21.399Z,0.00
2023-05-09T02:42:21.385Z,0.00
2023-05-09T02:43:21.401Z,0.00
2023-05-09T02:44:21.387Z,0.00
2023-05-09T02:45:21.407Z,0.00
2023-05-09T02:46:21.386Z,0.00
2023-05-09T02:47:21.345Z,0.00
2023-05-09T02:48:21.315Z,0.00
2023-05-09T02:49:31.453Z,0.00
2023-05-09T02:50:21.321Z,0.00
2023-05-09T02:51:21.294Z,0.00
2023-05-09T02:52:21.277Z,0.00
2023-05-09T02:53:21.257Z,0.00
2023-05-09T02:54:21.262Z,0.00
2023-05-09T02:55:21.263Z,0.00
2023-05-09T02:56:21.179Z,1.00
2023-05-09T02:57:21.228Z,0.00
2023-05-09T02:58:21.241Z,0.00
2023-05-09T02:59:21.234Z,1.00
2023-05-09T03:00:21.121Z,1.00
2023-05-09T03:01:21.204Z,1.00
2023-05-09T03:02:21.180Z,1.00
2023-05-09T03:03:21.239Z,2.00
2023-05-09T03:04:21.159Z,0.00
2023-05-09T03:05:21.100Z,2.00
2023-05-09T03:06:21.084Z,1.00
2023-05-09T03:07:21.052Z,1.00
2023-05-09T03:08:21.087Z,2.00
2023-05-09T03:09:21.065Z,1.00
2023-05-09T03:10:21.040Z,2.00
2023-05-09T03:11:21.016Z,1.00
2023-05-09T03:12:21.008Z,2.00
2023-05-09T03:13:21.117Z,1.00
2023-05-09T03:14:21.017Z,2.00
2023-05-09T03:15:20.983Z,3.00
2023-05-09T03:16:20.993Z,3.00
2023-05-09T03:17:20.990Z,4.00
2023-05-09T03:18:21.195Z,5.00
2023-05-09T03:19:20.985Z,5.00
2023-05-09T03:20:20.954Z,6.00
2023-05-09T03:21:20.982Z,7.00
2023-05-09T03:22:20.903Z,9.00
2023-05-09T03:23:20.898Z,10.00
2023-05-09T03:24:20.892Z,12.00
2023-05-09T03:25:20.899Z,14.00
2023-05-09T03:26:20.897Z,16.00
2023-05-09T03:27:20.884Z,19.00
2023-05-09T03:28:20.859Z,21.00
2023-05-09T03:29:20.909Z,23.00
2023-05-09T03:30:20.831Z,26.00
2023-05-09T03:31:20.947Z,28.00
2023-05-09T03:32:21.104Z,31.00
2023-05-09T03:33:20.821Z,38.00
2023-05-09T03:34:20.884Z,46.00
2023-05-09T03:35:20.831Z,52.00
2023-05-09T03:36:20.867Z,65.00
2023-05-09T03:37:20.767Z,73.00
2023-05-09T03:38:20.762Z,75.00
2023-05-09T03:39:20.735Z,76.00
2023-05-09T03:40:20.722Z,73.00
2023-05-09T03:41:20.750Z,82.00
2023-05-09T03:42:20.690Z,88.00
2023-05-09T03:43:20.716Z,107.00
2023-05-09T03:44:20.674Z,127.00
2023-05-09T03:45:20.719Z,153.00
2023-05-09T03:46:20.790Z,187.00
2023-05-09T03:47:20.671Z,209.00
2023-05-09T03:48:20.664Z,219.00
2023-05-09T03:49:20.683Z,226.00
2023-05-09T03:50:20.690Z,229.00
2023-05-09T03:51:20.640Z,246.00
2023-05-09T03:52:20.604Z,264.00
2023-05-09T03:53:20.719Z,276.00
2023-05-09T03:54:20.601Z,276.00
2023-05-09T03:55:20.586Z,286.00
2023-05-09T03:56:20.559Z,293.00
2023-05-09T03:57:20.571Z,307.00
2023-05-09T03:58:20.560Z,316.00
2023-05-09T03:59:20.571Z,323.00
2023-05-09T04:00:20.578Z,330.00
2023-05-09T04:01:20.515Z,331.00
2023-05-09T04:02:20.554Z,323.00
2023-05-09T04:03:20.530Z,329.00
2023-05-09T04:04:20.552Z,341.00
2023-05-09T04:05:20.481Z,374.00
2023-05-09T04:06:20.462Z,414.00
2023-05-09T04:07:20.443Z,457.00
2023-05-09T04:08:20.537Z,482.00
2023-05-09T04:09:20.471Z,485.00
2023-05-09T04:10:20.416Z,493.00
2023-05-09T04:11:20.414Z,501.00
2023-05-09T04:12:20.405Z,493.00
2023-05-09T04:13:20.526Z,512.00
2023-05-09T04:14:20.383Z,529.00
2023-05-09T04:15:20.385Z,535.00
2023-05-09T04:16:20.376Z,551.00
2023-05-09T04:17:20.369Z,566.00
2023-05-09T04:18:20.996Z,617.00
2023-05-09T04:19:20.327Z,625.00
2023-05-09T04:20:20.287Z,626.00
2023-05-09T04:21:20.293Z,606.00
2023-05-09T04:22:20.313Z,598.00
2023-05-09T04:23:20.470Z,608.00
2023-05-09T04:24:20.310Z,619.00
2023-05-09T04:25:20.258Z,626.00
2023-05-09T04:26:20.265Z,635.00
2023-05-09T04:27:20.276Z,641.00
2023-05-09T04:28:20.246Z,650.00
2023-05-09T04:29:20.243Z,637.00
2023-05-09T04:30:20.359Z,610.00
2023-05-09T04:39:15.579Z,1193.00
2023-05-09T04:40:17.003Z,1121.00
2023-05-09T04:41:16.421Z,1209.00
2023-05-09T04:42:24.752Z,1306.00
2023-05-09T04:43:16.342Z,1348.00
2023-05-09T04:44:16.388Z,1484.00
2023-05-09T04:45:16.657Z,1580.00
2023-05-09T04:46:16.396Z,1609.00
2023-05-09T04:47:16.306Z,1637.00
2023-05-09T04:48:16.300Z,1639.00
2023-05-09T04:49:16.293Z,1658.00
2023-05-09T04:50:16.300Z,1744.00
2023-05-09T04:51:16.311Z,1878.00
2023-05-09T04:52:16.293Z,2040.00
2023-05-09T04:53:16.313Z,2168.00
2023-05-09T04:54:16.266Z,2278.00
2023-05-09T04:55:16.480Z,2376.00
2023-05-09T04:56:16.219Z,2506.00
2023-05-09T04:57:18.298Z,2565.00
2023-05-09T04:58:16.197Z,2569.00
2023-05-09T04:59:16.186Z,2509.00
2023-05-09T05:00:16.229Z,2600.00
2023-05-09T05:01:16.175Z,2648.00
2023-05-09T05:02:16.184Z,2655.00
2023-05-09T05:03:16.140Z,2839.00
2023-05-09T05:04:16.156Z,2896.00
2023-05-09T05:05:16.138Z,2892.00
2023-05-09T05:06:16.108Z,2816.00
2023-05-09T05:07:16.106Z,2847.00
2023-05-09T05:08:16.095Z,2839.00
2023-05-09T05:09:16.568Z,2888.00
2023-05-09T05:10:16.100Z,2951.00
2023-05-09T05:11:16.135Z,2894.00
2023-05-09T05:12:16.084Z,2876.00
2023-05-09T05:13:16.065Z,2852.00
2023-05-09T05:14:16.035Z,2810.00
2023-05-09T05:15:16.327Z,2828.00
2023-05-09T05:16:16.053Z,2786.00
2023-05-09T05:17:15.997Z,2868.00
2023-05-09T05:18:16.022Z,3062.00
2023-05-09T05:19:16.000Z,3187.00
2023-05-09T05:20:15.975Z,3263.00
2023-05-09T05:21:15.968Z,3301.00
2023-05-09T05:22:15.940Z,3040.00
2023-05-09T05:23:15.994Z,2915.00
2023-05-09T05:24:15.971Z,2952.00
2023-05-09T05:25:16.177Z,3088.00
2023-05-09T05:26:15.906Z,3204.00
2023-05-09T05:27:15.895Z,3476.00
2023-05-09T05:28:15.924Z,3847.00
2023-05-09T05:29:15.870Z,4254.00
2023-05-09T05:30:15.976Z,4843.00
2023-05-09T05:31:15.873Z,4567.00
2023-05-09T05:32:15.851Z,4844.00
2023-05-09T05:33:15.951Z,4850.00
2023-05-09T05:34:17.377Z,4566.00
2023-05-09T05:35:16.712Z,1993.00
2023-05-09T05:36:15.942Z,11719.00
2023-05-09T05:37:15.980Z,9228.00
2023-05-09T05:38:15.905Z,6068.00
2023-05-09T05:39:15.827Z,4628.00
2023-05-09T05:40:15.824Z,3567.00
2023-05-09T05:41:15.808Z,3397.00
2023-05-09T05:42:15.806Z,3219.00
2023-05-09T05:43:15.765Z,3086.00
2023-05-09T05:44:15.744Z,2990.00
2023-05-09T05:45:16.147Z,2872.00
2023-05-09T05:46:15.769Z,2926.00
2023-05-09T05:47:15.810Z,2702.00
2023-05-09T05:48:15.696Z,2776.00
2023-05-09T05:49:15.674Z,2724.00
2023-05-09T05:50:15.906Z,2705.00
2023-05-09T05:51:15.732Z,2749.00
2023-05-09T05:52:15.680Z,2854.00
2023-05-09T05:53:15.640Z,3090.00
2023-05-09T05:54:15.796Z,3342.00
2023-05-09T05:55:15.939Z,3641.00
2023-05-09T05:56:15.644Z,4066.00
2023-05-09T05:57:15.579Z,4263.00
2023-05-09T05:58:15.557Z,4332.00
2023-05-09T05:59:15.585Z,4696.00
2023-05-09T06:00:15.551Z,4656.00
2023-05-09T06:01:15.925Z,4534.00
2023-05-09T06:02:15.611Z,4379.00
2023-05-09T06:03:15.541Z,4220.00
2023-05-09T06:04:15.566Z,4344.00
2023-05-09T06:05:15.644Z,4241.00
2023-05-09T06:06:15.531Z,4302.00
2023-05-09T06:07:15.485Z,4156.00
2023-05-09T06:08:15.460Z,4269.00
2023-05-09T06:09:15.465Z,4492.00
2023-05-09T06:10:15.502Z,4784.00
2023-05-09T06:11:15.500Z,4762.00
2023-05-09T06:12:15.474Z,4734.00
2023-05-09T06:13:15.464Z,4748.00
2023-05-09T06:14:15.460Z,4641.00
2023-05-09T06:15:15.666Z,4504.00
2023-05-09T06:16:20.185Z,4395.00
2023-05-09T06:17:15.395Z,4204.00
2023-05-09T06:18:15.409Z,4220.00
2023-05-09T06:19:15.392Z,4286.00
2023-05-09T06:20:15.456Z,4425.00
2023-05-09T06:21:15.330Z,4549.00
2023-05-09T06:22:15.316Z,4591.00
2023-05-09T06:23:15.295Z,4746.00
2023-05-09T06:24:23.919Z,4984.00
2023-05-09T06:25:15.601Z,5233.00
2023-05-09T06:26:15.288Z,5231.00
2023-05-09T06:27:15.260Z,5396.00
2023-05-09T06:28:15.266Z,5632.00
2023-05-09T06:29:15.308Z,6062.00
2023-05-09T06:30:25.634Z,6299.00
2023-05-09T06:31:15.329Z,6681.00
2023-05-09T06:32:15.215Z,6791.00
2023-05-09T06:33:15.260Z,7197.00
2023-05-09T06:34:15.244Z,7662.00
2023-05-09T06:35:15.498Z,7982.00
2023-05-09T06:36:15.179Z,7803.00
2023-05-09T06:37:15.177Z,6858.00
2023-05-09T06:38:15.227Z,8102.00
2023-05-09T06:39:15.186Z,7744.00
2023-05-09T06:40:15.132Z,10299.00
2023-05-09T06:41:15.158Z,8347.00
2023-05-09T06:42:15.124Z,7810.00
2023-05-09T06:43:15.136Z,5574.00
2023-05-09T06:44:15.119Z,4499.00
2023-05-09T06:45:15.401Z,10821.00
2023-05-09T06:46:15.120Z,3612.00
2023-05-09T06:47:15.094Z,25431.00
2023-05-09T06:48:15.103Z,17152.00
2023-05-09T06:49:15.055Z,13486.00
2023-05-09T06:50:15.025Z,21689.00
2023-05-09T06:51:15.017Z,21451.00
2023-05-09T06:52:15.042Z,13855.00
2023-05-09T06:53:14.997Z,22717.00
2023-05-09T06:54:14.987Z,23618.00
2023-05-09T06:55:15.262Z,28418.00
2023-05-09T06:56:14.978Z,17390.00
2023-05-09T06:57:15.013Z,19213.00
2023-05-09T06:58:14.944Z,19087.00
2023-05-09T06:59:14.933Z,10355.00
2023-05-09T07:00:14.929Z,7226.00
2023-05-09T07:01:14.975Z,3361.00
2023-05-09T07:02:14.990Z,6828.00
2023-05-09T07:03:14.909Z,29654.00
2023-05-09T07:04:14.895Z,29952.00
2023-05-09T07:05:15.200Z,28958.00
2023-05-09T07:06:14.889Z,23853.00
2023-05-09T07:07:14.849Z,26458.00
2023-05-09T07:08:14.849Z,28960.00
2023-05-09T07:09:14.840Z,4946.00
2023-05-09T07:10:14.821Z,25782.00
2023-05-09T07:11:14.832Z,19839.00
2023-05-09T07:12:14.863Z,20329.00
2023-05-09T07:13:14.839Z,13865.00
2023-05-09T07:14:14.788Z,4350.00
2023-05-09T07:15:20.571Z,28337.00
2023-05-09T07:16:14.785Z,19081.00
2023-05-09T07:17:23.043Z,7809.00
2023-05-09T07:18:14.773Z,12143.00
2023-05-09T07:19:14.801Z,16950.00
2023-05-09T07:20:14.764Z,13055.00
2023-05-09T07:21:14.706Z,11452.00
2023-05-09T07:22:14.718Z,11370.00
2023-05-09T07:23:14.691Z,9343.00
2023-05-09T07:24:14.749Z,4136.00
2023-05-09T07:25:14.939Z,16673.00
2023-05-09T07:26:14.649Z,20142.00
2023-05-09T07:27:14.666Z,35433.00
2023-05-09T07:28:14.630Z,24770.00
2023-05-09T07:29:14.664Z,13670.00
2023-05-09T07:30:14.887Z,13362.00
2023-05-09T07:31:14.693Z,4863.00
2023-05-09T07:32:14.673Z,25357.00
2023-05-09T07:33:14.644Z,22625.00
2023-05-09T07:34:14.707Z,24108.00
2023-05-09T07:35:14.757Z,7063.00
2023-05-09T07:36:14.542Z,18567.00
2023-05-09T07:37:16.256Z,28772.00
2023-05-09T07:38:14.534Z,28685.00
2023-05-09T07:39:14.550Z,30368.00
2023-05-09T07:40:14.849Z,29012.00
2023-05-09T07:41:14.496Z,23482.00
2023-05-09T07:42:14.500Z,32132.00
2023-05-09T07:43:14.502Z,22274.00
2023-05-09T07:44:14.486Z,32671.00
2023-05-09T07:45:14.605Z,36045.00
2023-05-09T07:46:14.465Z,18309.00
2023-05-09T07:47:14.501Z,30323.00
2023-05-09T07:48:14.512Z,23599.00
2023-05-09T07:49:14.450Z,14683.00
2023-05-09T07:50:14.422Z,12406.00
2023-05-09T07:51:14.389Z,14352.00
2023-05-09T07:52:14.438Z,12910.00
2023-05-09T07:53:14.376Z,14206.00
2023-05-09T07:54:14.433Z,12198.00
2023-05-09T07:55:14.583Z,11269.00
2023-05-09T07:56:14.370Z,14626.00
2023-05-09T07:57:14.361Z,14753.00
2023-05-09T07:58:14.338Z,15557.00
2023-05-09T07:59:14.334Z,15168.00
2023-05-09T08:00:14.321Z,13820.00
2023-05-09T08:01:14.379Z,12607.00
2023-05-09T08:02:14.361Z,26301.00
2023-05-09T08:03:14.432Z,21595.00
2023-05-09T08:04:14.374Z,17040.00
2023-05-09T08:05:14.465Z,14875.00
2023-05-09T08:06:14.276Z,20338.00
2023-05-09T08:07:14.259Z,17697.00
2023-05-09T08:08:14.219Z,6443.00
2023-05-09T08:09:14.266Z,75770.00
2023-05-09T08:10:14.201Z,77836.00
2023-05-09T08:11:14.208Z,78382.00
2023-05-09T08:12:14.174Z,78420.00
2023-05-09T08:13:14.186Z,75535.00
2023-05-09T08:14:15.626Z,75666.00
2023-05-09T08:15:14.324Z,71510.00
2023-05-09T08:16:14.299Z,30968.00
2023-05-09T08:17:14.130Z,23979.00
2023-05-09T08:18:14.116Z,74971.00
2023-05-09T08:19:14.129Z,68734.00
2023-05-09T08:20:14.121Z,29140.00
2023-05-09T08:21:14.110Z,20301.00
2023-05-09T08:22:14.084Z,18204.00
2023-05-09T08:23:14.062Z,16562.00
2023-05-09T08:24:14.063Z,16090.00
2023-05-09T08:25:14.320Z,16962.00
2023-05-09T08:26:14.053Z,17136.00
2023-05-09T08:27:14.038Z,16941.00
2023-05-09T08:28:14.017Z,14918.00
2023-05-09T08:29:14.024Z,22142.00
2023-05-09T08:30:14.030Z,21241.00
2023-05-09T08:31:14.027Z,21714.00
2023-05-09T08:32:14.070Z,17276.00
2023-05-09T08:33:14.163Z,15783.00
2023-05-09T08:34:13.992Z,18524.00
2023-05-09T08:35:14.284Z,20618.00
2023-05-09T08:36:13.926Z,26919.00
2023-05-09T08:37:15.177Z,23055.00
2023-05-09T08:38:14.003Z,16377.00
2023-05-09T08:39:13.969Z,17398.00
2023-05-09T08:40:14.107Z,17976.00
2023-05-09T08:41:13.886Z,17506.00
2023-05-09T08:42:13.890Z,17477.00
2023-05-09T08:43:13.870Z,17396.00
2023-05-09T08:44:13.889Z,17128.00
2023-05-09T08:45:13.836Z,14927.00
2023-05-09T08:46:13.841Z,13850.00
2023-05-09T08:47:13.836Z,13135.00
2023-05-09T08:48:13.847Z,13691.00
2023-05-09T08:49:13.860Z,12754.00
2023-05-09T08:50:14.103Z,11756.00
2023-05-09T08:51:13.849Z,10597.00
2023-05-09T08:52:13.783Z,9384.00
2023-05-09T08:53:13.787Z,8114.00
2023-05-09T08:54:13.789Z,6978.00
2023-05-09T08:55:13.806Z,6144.00
2023-05-09T08:56:13.724Z,5606.00
2023-05-09T08:57:13.734Z,5310.00
2023-05-09T08:58:13.816Z,5194.00
2023-05-09T08:59:13.749Z,5261.00
2023-05-09T09:00:13.947Z,5733.00
2023-05-09T09:01:13.723Z,6017.00
2023-05-09T09:02:13.734Z,5851.00
2023-05-09T09:03:13.747Z,5606.00
2023-05-09T09:04:13.650Z,5232.00
2023-05-09T09:05:34.205Z,5074.00
2023-05-09T09:06:13.648Z,5287.00
2023-05-09T09:07:13.610Z,5643.00
2023-05-09T09:08:13.649Z,6294.00
2023-05-09T09:09:13.678Z,6917.00
2023-05-09T09:10:13.715Z,7374.00
2023-05-09T09:11:13.602Z,7675.00
2023-05-09T09:12:13.598Z,7788.00
2023-05-09T09:13:13.667Z,7883.00
2023-05-09T09:14:13.552Z,7932.00
2023-05-09T09:15:13.565Z,7897.00
2023-05-09T09:16:13.574Z,8099.00
2023-05-09T09:17:13.546Z,8319.00
2023-05-09T09:18:13.535Z,8300.00
2023-05-09T09:19:13.529Z,8305.00
2023-05-09T09:20:13.807Z,8362.00
2023-05-09T09:21:13.570Z,8546.00
2023-05-09T09:22:13.524Z,8819.00
2023-05-09T09:23:13.478Z,9063.00
2023-05-09T09:24:13.466Z,9275.00
2023-05-09T09:25:13.427Z,9385.00
2023-05-09T09:26:13.411Z,9590.00
2023-05-09T09:27:13.407Z,9726.00
2023-05-09T09:28:13.461Z,9650.00
2023-05-09T09:29:13.397Z,9441.00
2023-05-09T09:30:13.640Z,9240.00
2023-05-09T09:31:14.297Z,9071.00
2023-05-09T09:32:13.431Z,8868.00
2023-05-09T09:33:13.355Z,8927.00
2023-05-09T09:34:13.340Z,9106.00
2023-05-09T09:35:13.396Z,9327.00
2023-05-09T09:36:13.340Z,9632.00
2023-05-09T09:37:13.374Z,10259.00
2023-05-09T09:38:13.282Z,11114.00
2023-05-09T09:39:13.319Z,12232.00
2023-05-09T09:40:13.493Z,12843.00
2023-05-09T09:41:13.290Z,13223.00
2023-05-09T09:42:13.262Z,13740.00
2023-05-09T09:43:13.279Z,13876.00
2023-05-09T09:44:13.291Z,13959.00
2023-05-09T09:45:13.297Z,14612.00
2023-05-09T09:46:13.252Z,14767.00
2023-05-09T09:47:13.201Z,14008.00
2023-05-09T09:48:13.242Z,13392.00
2023-05-09T09:49:13.233Z,13175.00
2023-05-09T09:50:13.439Z,13275.00
2023-05-09T09:51:13.168Z,13891.00
2023-05-09T09:52:13.157Z,14127.00
2023-05-09T09:53:13.153Z,13826.00
2023-05-09T09:54:13.169Z,13919.00
2023-05-09T09:55:13.150Z,13967.00
2023-05-09T09:56:13.115Z,14110.00
2023-05-09T09:57:13.113Z,15500.00
2023-05-09T09:58:13.143Z,17093.00
2023-05-09T09:59:13.116Z,16595.00
2023-05-09T10:00:13.376Z,16100.00
2023-05-09T10:01:13.096Z,28489.00
2023-05-09T10:02:13.048Z,16047.00
2023-05-09T10:03:13.135Z,20980.00
2023-05-09T10:04:13.094Z,26951.00
2023-05-09T10:05:13.037Z,25652.00
2023-05-09T10:06:13.066Z,19365.00
2023-05-09T10:07:15.163Z,18561.00
2023-05-09T10:08:13.008Z,25581.00
2023-05-09T10:09:12.994Z,13989.00
2023-05-09T10:10:13.472Z,37299.00
2023-05-09T10:11:13.021Z,26187.00
2023-05-09T10:12:12.988Z,18398.00
2023-05-09T10:13:13.113Z,15124.00
2023-05-09T10:14:12.961Z,19040.00
2023-05-09T10:15:12.915Z,18688.00
2023-05-09T10:16:13.079Z,18355.00
2023-05-09T10:17:13.017Z,16574.00
2023-05-09T10:18:13.018Z,14930.00
2023-05-09T10:19:12.900Z,13281.00
2023-05-09T10:20:13.147Z,21665.00
2023-05-09T10:21:12.853Z,15031.00
2023-05-09T10:22:12.884Z,13295.00
2023-05-09T10:23:12.893Z,13417.00
2023-05-09T10:24:12.846Z,12955.00
2023-05-09T10:25:13.148Z,13098.00
2023-05-09T10:26:12.815Z,13199.00
2023-05-09T10:27:12.868Z,12856.00
2023-05-09T10:28:12.787Z,12221.00
2023-05-09T10:29:12.791Z,11758.00
2023-05-09T10:30:12.778Z,11419.00
2023-05-09T10:31:12.849Z,11525.00
2023-05-09T10:32:12.777Z,11438.00
2023-05-09T10:33:12.787Z,10426.00
2023-05-09T10:34:12.730Z,10304.00
2023-05-09T10:35:12.816Z,10174.00
2023-05-09T10:36:12.737Z,9845.00
2023-05-09T10:37:12.714Z,9946.00
2023-05-09T10:38:12.675Z,10784.00
2023-05-09T10:39:12.678Z,11316.00
2023-05-09T10:40:12.676Z,12256.00
2023-05-09T10:41:12.708Z,13129.00
2023-05-09T10:42:12.646Z,13714.00
2023-05-09T10:43:12.623Z,19544.00
2023-05-09T10:44:20.901Z,16507.00
2023-05-09T10:45:13.104Z,15073.00
2023-05-09T10:46:13.104Z,5496.00
2023-05-09T10:47:12.592Z,29976.00
2023-05-09T10:48:12.567Z,19977.00
2023-05-09T10:49:12.574Z,14374.00
2023-05-09T10:50:12.577Z,14608.00
2023-05-09T10:51:12.528Z,13477.00
2023-05-09T10:52:12.524Z,17535.00
2023-05-09T10:53:12.526Z,19626.00
2023-05-09T10:54:12.526Z,18866.00
2023-05-09T10:55:12.901Z,18035.00
2023-05-09T10:56:12.477Z,17592.00
2023-05-09T10:57:12.470Z,19374.00
2023-05-09T10:58:12.459Z,7128.00
2023-05-09T10:59:12.474Z,64219.00
2023-05-09T11:00:12.433Z,18979.00
2023-05-09T11:01:12.469Z,14227.00
2023-05-09T11:02:12.416Z,15129.00
2023-05-09T11:03:12.613Z,13621.00
2023-05-09T11:04:12.435Z,11760.00
2023-05-09T11:05:12.433Z,12408.00
2023-05-09T11:06:12.409Z,11887.00
2023-05-09T11:07:12.387Z,17947.00
2023-05-09T11:08:12.368Z,17287.00
2023-05-09T11:09:12.394Z,16079.00
2023-05-09T11:10:12.341Z,16937.00
2023-05-09T11:11:12.354Z,16970.00
2023-05-09T11:12:12.358Z,15665.00
2023-05-09T11:13:12.343Z,15297.00
2023-05-09T11:14:12.290Z,15151.00
2023-05-09T11:15:12.357Z,13911.00
2023-05-09T11:16:12.345Z,12792.00
2023-05-09T11:17:12.277Z,12383.00
2023-05-09T11:18:12.338Z,11243.00
2023-05-09T11:19:12.254Z,10749.00
2023-05-09T11:20:12.228Z,10160.00
2023-05-09T11:21:12.234Z,13849.00
2023-05-09T11:22:12.236Z,5800.00
2023-05-09T11:23:12.296Z,30093.00
2023-05-09T11:24:12.182Z,21224.00
2023-05-09T11:25:12.276Z,18186.00
2023-05-09T11:26:12.196Z,9040.00
2023-05-09T11:27:12.161Z,23969.00
2023-05-09T11:28:12.179Z,23020.00
2023-05-09T11:29:12.147Z,21646.00
2023-05-09T11:30:12.137Z,12393.00
2023-05-09T11:31:12.155Z,7572.00
2023-05-09T11:32:12.212Z,7565.00
2023-05-09T11:33:12.204Z,11424.00
2023-05-09T11:34:12.120Z,8252.00
2023-05-09T11:35:12.221Z,5484.00
2023-05-09T11:36:12.108Z,10253.00
2023-05-09T11:37:12.079Z,8650.00
2023-05-09T11:38:12.124Z,7395.00
2023-05-09T11:39:12.040Z,10431.00
2023-05-09T11:40:12.043Z,8594.00
2023-05-09T11:41:12.052Z,8292.00
2023-05-09T11:42:12.006Z,8666.00
2023-05-09T11:43:12.026Z,10089.00
2023-05-09T11:44:11.990Z,12555.00
2023-05-09T11:45:12.060Z,4826.00
2023-05-09T11:46:12.039Z,27962.00
2023-05-09T11:47:12.000Z,23459.00
2023-05-09T11:48:11.933Z,23221.00
2023-05-09T11:49:12.418Z,18513.00
2023-05-09T11:50:11.967Z,9630.00
2023-05-09T11:51:11.934Z,17460.00
2023-05-09T11:52:11.918Z,7554.00
2023-05-09T11:53:11.925Z,30692.00
2023-05-09T11:54:11.884Z,12545.00
2023-05-09T11:55:12.829Z,18571.00
2023-05-09T11:56:11.893Z,31082.00
2023-05-09T11:57:11.847Z,13274.00
2023-05-09T11:58:11.830Z,12872.00
2023-05-09T11:59:11.833Z,9060.00
2023-05-09T12:00:11.854Z,8456.00
2023-05-09T12:01:12.312Z,10300.00
2023-05-09T12:02:11.859Z,11010.00
2023-05-09T12:03:12.106Z,10474.00
2023-05-09T12:04:11.953Z,8198.00
2023-05-09T12:05:11.836Z,8657.00
2023-05-09T12:06:11.764Z,9344.00
2023-05-09T12:07:20.028Z,10376.00
2023-05-09T12:08:11.772Z,6791.00
2023-05-09T12:09:11.768Z,5751.00
2023-05-09T12:10:11.725Z,4637.00
2023-05-09T12:11:11.697Z,7416.00
2023-05-09T12:12:11.702Z,10595.00
2023-05-09T12:13:12.459Z,13348.00
2023-05-09T12:14:11.706Z,14036.00
2023-05-09T12:15:11.709Z,14814.00
2023-05-09T12:16:11.700Z,12727.00
2023-05-09T12:17:11.696Z,13017.00
2023-05-09T12:18:11.728Z,13544.00
2023-05-09T12:19:11.625Z,14522.00
2023-05-09T12:20:11.621Z,15753.00
2023-05-09T12:21:11.609Z,14126.00
2023-05-09T12:22:11.575Z,11307.00
2023-05-09T12:23:11.628Z,8960.00
2023-05-09T12:24:11.559Z,11916.00
2023-05-09T12:25:11.555Z,14972.00
2023-05-09T12:26:11.558Z,14590.00
2023-05-09T12:27:11.558Z,13759.00